Time;durP1;ratioP1;P1;durP2;ratioP2;P2;SDS_P1;SDS_P2;PMS_P1;PMS_P2;Temp;Humidity;BMP_temperature;BMP_pressure;BME280_temperature;BME280_humidity;BME280_pressure;Samples;Min_cycle;Max_cycle;Signal;HPM_P1;HPM_P2
2022/07/07 00:01:08;;;;;;;1.90;1.73;;;;;;;15.22;99.01;100925.53;5064363;28;20192;-76
2022/07/07 00:03:34;;;;;;;2.00;1.60;;;;;;;15.20;99.01;100924.72;5067526;28;20250;-75
2022/07/07 00:05:59;;;;;;;1.83;1.73;;;;;;;15.18;99.27;100921.31;5056789;28;20218;-75
2022/07/07 00:08:24;;;;;;;1.83;1.67;;;;;;;15.16;99.27;100925.69;5064058;28;20225;-75
2022/07/07 00:10:50;;;;;;;2.10;1.80;;;;;;;15.17;99.62;100918.69;5063650;28;20191;-76
2022/07/07 00:13:15;;;;;;;1.90;1.70;;;;;;;15.19;99.98;100922.16;5063828;28;20275;-76
2022/07/07 00:15:45;;;;;;;2.00;1.80;;;;;;;15.20;100.00;100916.88;5067979;28;20207;-76
2022/07/07 00:18:14;;;;;;;3.10;1.73;;;;;;;15.21;100.00;100918.63;5063978;28;20614;-77
2022/07/07 00:20:39;;;;;;;2.00;1.83;;;;;;;15.22;100.00;100903.84;5062835;28;20193;-76
2022/07/07 00:23:05;;;;;;;14.33;2.77;;;;;;;15.24;100.00;100902.06;5062521;28;20193;-76
2022/07/07 00:25:30;;;;;;;9.53;2.90;;;;;;;15.27;100.00;100893.31;5059021;28;20216;-76
2022/07/07 00:27:55;;;;;;;14.23;2.70;;;;;;;15.29;100.00;100888.94;5061737;28;20201;-76
2022/07/07 00:30:21;;;;;;;13.37;3.10;;;;;;;15.31;100.00;100889.78;5057585;28;20625;-76
2022/07/07 00:32:47;;;;;;;14.87;2.80;;;;;;;15.31;100.00;100887.16;5059404;28;20258;-76
2022/07/07 00:35:12;;;;;;;13.00;2.97;;;;;;;15.32;100.00;100879.31;5061947;28;20251;-76
2022/07/07 00:37:38;;;;;;;7.53;2.70;;;;;;;15.37;100.00;100877.47;5061398;28;20190;-76
2022/07/07 00:40:04;;;;;;;6.67;2.77;;;;;;;15.42;100.00;100877.38;5064187;28;20184;-76
2022/07/07 00:42:29;;;;;;;3.73;2.00;;;;;;;15.43;100.00;100886.94;5065584;28;20175;-76
2022/07/07 00:44:55;;;;;;;3.80;2.20;;;;;;;15.45;100.00;100884.28;5066432;28;20180;-76
2022/07/07 00:47:21;;;;;;;2.63;1.80;;;;;;;15.46;100.00;100881.66;5062786;28;20231;-76
2022/07/07 00:49:46;;;;;;;2.13;1.60;;;;;;;15.50;100.00;100888.50;5063827;28;20204;-76
2022/07/07 00:52:12;;;;;;;3.10;2.17;;;;;;;15.50;100.00;100885.91;5055386;28;20199;-76
2022/07/07 00:54:37;;;;;;;3.30;1.90;;;;;;;15.48;100.00;100882.50;5066187;28;20249;-76
2022/07/07 00:57:05;;;;;;;4.40;1.90;;;;;;;15.47;100.00;100882.50;5063591;28;20264;-76
2022/07/07 00:59:31;;;;;;;1.87;1.77;;;;;;;15.46;100.00;100867.75;5055537;28;20192;-76
2022/07/07 01:02:00;;;;;;;2.13;1.90;;;;;;;15.47;100.00;100872.94;5054304;28;20260;-75
2022/07/07 01:04:26;;;;;;;2.20;2.00;;;;;;;15.50;100.00;100874.63;5062866;28;20182;-76
2022/07/07 01:06:51;;;;;;;1.83;1.73;;;;;;;15.49;98.43;100872.91;5056549;28;20708;-76
2022/07/07 01:09:17;;;;;;;3.77;2.03;;;;;;;15.48;97.97;100871.19;5059959;28;20550;-76
2022/07/07 01:11:52;;;;;;;2.00;1.90;;;;;;;15.52;97.91;100867.63;5061510;28;20745;-76
2022/07/07 01:14:18;;;;;;;1.73;1.63;;;;;;;15.54;98.10;100871.91;5061274;28;20196;-76
2022/07/07 01:16:44;;;;;;;3.33;1.50;;;;;;;15.57;98.09;100864.91;5062787;28;20218;-76
2022/07/07 01:19:10;;;;;;;2.37;1.90;;;;;;;15.57;97.97;100857.97;5065361;28;20196;-75
2022/07/07 01:21:52;;;;;;;1.70;1.50;;;;;;;15.55;97.70;100851.91;5064022;28;20194;-76
2022/07/07 01:24:17;;;;;;;2.23;1.60;;;;;;;15.53;97.09;100858.91;5057774;28;20184;-76
2022/07/07 01:26:43;;;;;;;1.70;1.60;;;;;;;15.51;97.06;100851.09;5060336;28;20679;-76
2022/07/07 01:29:09;;;;;;;2.47;1.60;;;;;;;15.50;97.45;100845.94;5063856;28;20197;-75
2022/07/07 01:31:34;;;;;;;1.73;1.60;;;;;;;15.48;97.60;100845.09;5066741;28;20687;-75
2022/07/07 01:34:00;;;;;;;2.03;1.57;;;;;;;15.46;97.84;100839.94;5060317;28;20246;-76
2022/07/07 01:36:25;;;;;;;1.80;1.70;;;;;;;15.42;98.16;100840.88;5059091;28;20260;-76
2022/07/07 01:38:51;;;;;;;1.80;1.70;;;;;;;15.39;98.30;100836.59;5061382;28;20713;-76
2022/07/07 01:41:16;;;;;;;2.67;1.73;;;;;;;15.36;98.68;100840.97;5064208;28;20177;-76
2022/07/07 01:43:41;;;;;;;2.93;1.80;;;;;;;15.33;98.84;100841.06;5054797;28;20183;-76
2022/07/07 01:46:07;;;;;;;1.80;1.70;;;;;;;15.27;98.91;100841.16;5063354;28;20212;-76
2022/07/07 01:48:32;;;;;;;1.60;1.50;;;;;;;15.21;98.93;100835.19;5062098;28;20186;-76
2022/07/07 01:50:58;;;;;;;1.70;1.60;;;;;;;15.17;98.54;100845.69;5059863;28;20229;-76
2022/07/07 01:53:24;;;;;;;1.93;1.50;;;;;;;15.11;98.55;100840.63;5059775;28;20197;-76
2022/07/07 01:55:49;;;;;;;1.50;1.40;;;;;;;15.06;98.95;100845.91;5061283;28;21012;-76
2022/07/07 01:58:15;;;;;;;1.83;1.70;;;;;;;15.01;99.03;100848.59;5055872;28;20685;-76
2022/07/07 02:00:40;;;;;;;1.50;1.40;;;;;;;14.97;98.84;100851.28;5060168;28;20243;-75
2022/07/07 02:03:05;;;;;;;1.90;1.70;;;;;;;14.89;98.35;100847.09;5058180;28;20191;-76
2022/07/07 02:05:31;;;;;;;1.67;1.57;;;;;;;14.84;98.75;100838.50;5063674;28;20711;-76
2022/07/07 02:07:56;;;;;;;1.50;1.40;;;;;;;14.80;98.64;100849.00;5060142;28;20675;-76
2022/07/07 02:13:06;;;;;;;1.80;1.60;;;;;;;14.68;98.71;100857.88;5067229;28;20237;-76
2022/07/07 02:15:32;;;;;;;1.50;1.27;;;;;;;14.61;98.36;100857.94;5065461;28;20840;-76
2022/07/07 02:17:58;;;;;;;1.97;1.77;;;;;;;14.60;98.33;100853.59;5065157;28;20185;-76
2022/07/07 02:20:24;;;;;;;1.80;1.70;;;;;;;14.59;98.10;100856.25;5067677;28;20657;-76
2022/07/07 02:22:49;;;;;;;1.60;1.50;;;;;;;14.56;98.07;100859.78;5067714;28;20913;-75
2022/07/07 02:25:14;;;;;;;1.60;1.50;;;;;;;14.54;98.25;100864.16;5070722;28;20577;-75
2022/07/07 02:27:40;;;;;;;2.00;1.70;;;;;;;14.53;98.52;100857.22;5066658;28;20192;-76
2022/07/07 02:30:06;;;;;;;1.70;1.50;;;;;;;14.53;98.71;100857.22;5067477;28;20201;-75
2022/07/07 02:32:32;;;;;;;1.97;1.63;;;;;;;14.53;99.26;100859.81;5061880;28;20251;-75
2022/07/07 02:34:58;;;;;;;1.90;1.70;;;;;;;14.51;99.78;100858.13;5068615;28;20184;-75
2022/07/07 02:37:24;;;;;;;1.77;1.67;;;;;;;14.49;100.00;100865.94;5070242;28;20280;-75
2022/07/07 02:39:51;;;;;;;1.63;1.53;;;;;;;14.47;100.00;100859.91;5072144;28;20178;-75
2022/07/07 02:42:16;;;;;;;2.30;1.87;;;;;;;14.46;100.00;100852.97;5077891;28;20176;-75
2022/07/07 02:44:41;;;;;;;1.83;1.73;;;;;;;14.45;100.00;100853.84;5065156;28;20190;-75
2022/07/07 02:47:07;;;;;;;1.90;1.70;;;;;;;14.43;100.00;100847.84;5064458;28;20290;-75
2022/07/07 02:49:32;;;;;;;1.67;1.30;;;;;;;14.43;100.00;100845.22;5065279;28;20214;-77
2022/07/07 02:51:57;;;;;;;1.73;1.63;;;;;;;14.42;100.00;100840.91;5071842;28;20224;-75
2022/07/07 02:54:23;;;;;;;1.73;1.57;;;;;;;14.43;100.00;100843.47;5069433;28;20186;-75
2022/07/07 02:56:48;;;;;;;1.47;1.37;;;;;;;14.44;100.00;100841.75;5062737;28;20202;-75
2022/07/07 02:59:13;;;;;;;1.70;1.60;;;;;;;14.45;99.40;100841.72;5061131;28;20179;-75
2022/07/07 03:01:39;;;;;;;1.83;1.67;;;;;;;14.48;97.65;100827.78;5063365;28;20184;-75
2022/07/07 03:04:04;;;;;;;2.67;1.90;;;;;;;14.51;96.62;100821.69;5065973;28;20187;-75
2022/07/07 03:06:29;;;;;;;3.27;2.10;;;;;;;14.53;96.53;100833.78;5064036;28;20212;-75
2022/07/07 03:08:55;;;;;;;1.90;1.70;;;;;;;14.58;96.43;100833.69;5060157;28;20280;-75
2022/07/07 03:11:20;;;;;;;1.77;1.67;;;;;;;14.60;95.42;100840.59;5069402;28;20236;-77
2022/07/07 03:13:45;;;;;;;1.50;1.40;;;;;;;14.59;95.58;100833.69;5066336;28;20731;-75
2022/07/07 03:16:11;;;;;;;1.80;1.70;;;;;;;14.60;95.91;100829.31;5059871;28;20237;-76
2022/07/07 03:18:36;;;;;;;2.73;1.87;;;;;;;14.59;95.81;100836.28;5058266;28;20205;-75
2022/07/07 03:21:01;;;;;;;1.60;1.50;;;;;;;14.59;95.90;100835.41;5063676;28;20201;-75
2022/07/07 03:23:27;;;;;;;1.70;1.60;;;;;;;14.61;97.05;100838.84;5057687;28;20187;-75
2022/07/07 03:25:52;;;;;;;2.07;1.80;;;;;;;14.62;97.14;100841.41;5056995;28;20209;-75
2022/07/07 03:28:18;;;;;;;2.23;2.00;;;;;;;14.64;97.49;100841.41;5065225;28;20223;-75
2022/07/07 03:30:43;;;;;;;2.83;2.20;;;;;;;14.64;97.71;100841.41;5062773;28;20205;-76
2022/07/07 03:33:08;;;;;;;1.80;1.70;;;;;;;14.64;98.01;100833.59;5063776;28;20188;-75
2022/07/07 03:35:34;;;;;;;1.70;1.60;;;;;;;14.62;98.06;100825.78;5060519;28;20873;-75
2022/07/07 03:37:59;;;;;;;1.80;1.70;;;;;;;14.60;98.08;100822.34;5059337;28;20558;-76
2022/07/07 03:40:24;;;;;;;2.63;1.70;;;;;;;14.60;98.14;100817.13;5066071;28;20182;-76
2022/07/07 03:42:50;;;;;;;2.17;1.97;;;;;;;14.60;97.60;100808.47;5061237;28;20191;-76
2022/07/07 03:45:16;;;;;;;1.80;1.70;;;;;;;14.62;96.40;100807.56;5060347;28;20291;-75
2022/07/07 03:47:41;;;;;;;2.20;1.70;;;;;;;14.63;96.10;100806.69;5068282;28;20675;-75
2022/07/07 03:50:07;;;;;;;2.00;1.63;;;;;;;14.67;95.19;100802.25;5069812;28;20229;-76
2022/07/07 03:52:32;;;;;;;2.00;1.80;;;;;;;14.71;94.85;100803.13;5070782;28;20195;-75
2022/07/07 03:54:58;;;;;;;1.67;1.57;;;;;;;14.73;94.69;100803.97;5063853;28;20209;-75
2022/07/07 03:57:23;;;;;;;1.80;1.70;;;;;;;14.74;94.75;100811.72;5066176;28;20670;-75
2022/07/07 03:59:51;;;;;;;1.83;1.73;;;;;;;14.77;94.95;100803.88;5059911;28;20228;-75
2022/07/07 04:02:17;;;;;;;2.80;1.63;;;;;;;14.79;95.05;100803.81;5060099;28;20189;-75
2022/07/07 04:04:42;;;;;;;1.83;1.63;;;;;;;14.85;94.98;100802.84;5062550;28;20546;-75
2022/07/07 04:07:08;;;;;;;1.60;1.50;;;;;;;14.95;94.71;100804.41;5055710;28;20242;-76
2022/07/07 04:09:33;;;;;;;1.63;1.53;;;;;;;15.04;94.42;100801.63;5064292;28;20269;-76
2022/07/07 04:11:58;;;;;;;1.77;1.67;;;;;;;15.11;94.01;100810.19;5066431;28;20221;-75
2022/07/07 04:14:24;;;;;;;2.23;1.70;;;;;;;15.17;94.06;100812.69;5066309;28;20190;-75
2022/07/07 04:16:49;;;;;;;2.00;1.40;;;;;;;15.24;94.13;100808.22;5058967;28;20266;-75
2022/07/07 04:19:14;;;;;;;2.27;1.60;;;;;;;15.32;94.11;100805.44;5061483;28;20189;-75
2022/07/07 04:21:40;;;;;;;2.10;1.50;;;;;;;15.40;93.86;100806.13;5069811;28;20258;-75
2022/07/07 04:24:05;;;;;;;1.83;1.73;;;;;;;15.54;93.76;100811.06;5064245;28;20185;-75
2022/07/07 04:26:31;;;;;;;1.70;1.60;;;;;;;15.90;93.01;100802.50;5060305;28;20205;-76
2022/07/07 04:28:56;;;;;;;1.60;1.40;;;;;;;16.27;91.18;100799.88;5066734;28;20646;-75
2022/07/07 04:31:22;;;;;;;1.63;1.53;;;;;;;16.45;90.49;100814.22;5065618;28;20197;-76
2022/07/07 04:33:47;;;;;;;2.47;1.70;;;;;;;16.56;90.15;100811.34;5062692;28;20214;-75
2022/07/07 04:36:14;;;;;;;1.87;1.60;;;;;;;16.66;90.23;100811.09;5065508;28;20711;-76
2022/07/07 04:38:39;;;;;;;1.60;1.50;;;;;;;16.79;90.07;100807.25;5059223;28;20261;-77
2022/07/07 04:41:05;;;;;;;1.70;1.60;;;;;;;17.09;88.94;100820.47;5066453;28;20266;-76
2022/07/07 04:43:31;;;;;;;1.30;1.20;;;;;;;17.65;87.97;100819.69;5058159;28;20652;-76
2022/07/07 04:45:56;;;;;;;3.03;1.90;;;;;;;18.72;85.03;100813.72;5065974;28;20202;-78
2022/07/07 04:48:22;;;;;;;1.63;1.53;;;;;;;19.68;81.96;100821.66;5059503;28;20863;-78
2022/07/07 04:50:47;;;;;;;2.50;1.70;;;;;;;19.86;80.62;100814.84;5058051;28;22132;-76
2022/07/07 04:53:12;;;;;;;1.30;1.20;;;;;;;19.54;80.66;100803.81;5065284;28;20574;-76
2022/07/07 04:55:38;;;;;;;1.40;1.30;;;;;;;19.17;81.69;100816.56;5067059;28;20190;-76
2022/07/07 04:58:03;;;;;;;1.70;1.13;;;;;;;18.95;81.99;100805.97;5061825;28;20540;-77
2022/07/07 05:00:28;;;;;;;1.57;1.27;;;;;;;18.83;82.40;100799.34;5067604;28;20562;-75
2022/07/07 05:02:54;;;;;;;1.60;1.33;;;;;;;18.86;82.40;100800.09;5069143;28;20177;-76
2022/07/07 05:05:19;;;;;;;2.10;1.33;;;;;;;18.79;82.65;100793.38;5063777;28;20277;-76
2022/07/07 05:07:44;;;;;;;1.70;1.50;;;;;;;18.78;82.36;100786.41;5051849;28;20193;-76
2022/07/07 05:10:10;;;;;;;1.50;1.37;;;;;;;18.72;82.07;100789.25;5062704;28;20625;-78
2022/07/07 05:12:36;;;;;;;2.40;1.60;;;;;;;18.62;82.45;100780.84;5057340;28;20187;-77
2022/07/07 05:15:01;;;;;;;2.03;1.80;;;;;;;18.55;82.82;100784.59;5069408;28;20656;-76
2022/07/07 05:17:27;;;;;;;2.23;1.60;;;;;;;18.45;82.81;100785.84;5059973;28;20185;-76
2022/07/07 05:19:52;;;;;;;2.37;1.80;;;;;;;18.34;82.87;100784.41;5063064;28;20644;-77
2022/07/07 05:22:17;;;;;;;2.60;1.60;;;;;;;18.21;82.00;100789.22;5062596;28;20185;-76
2022/07/07 05:24:43;;;;;;;1.50;1.40;;;;;;;18.06;81.93;100790.56;5064130;28;20181;-76
2022/07/07 05:27:08;;;;;;;1.77;1.30;;;;;;;17.96;82.24;100792.56;5059550;28;20227;-76
2022/07/07 05:29:33;;;;;;;2.40;1.40;;;;;;;17.88;82.02;100796.34;5069624;28;20234;-76
2022/07/07 05:31:59;;;;;;;2.17;1.80;;;;;;;17.84;82.46;100798.19;5067653;28;20623;-75
2022/07/07 05:34:24;;;;;;;2.73;1.70;;;;;;;17.79;82.58;100808.81;5052986;28;20194;-76
2022/07/07 05:36:49;;;;;;;1.60;1.50;;;;;;;17.79;82.55;100802.72;5052155;28;20248;-76
2022/07/07 05:39:15;;;;;;;2.23;1.87;;;;;;;17.93;82.71;100804.91;5061506;28;20624;-76
2022/07/07 05:41:41;;;;;;;2.87;1.90;;;;;;;18.19;81.85;100808.50;5060780;28;20589;-76
2022/07/07 05:44:07;;;;;;;2.33;1.77;;;;;;;18.38;81.78;100803.50;5060391;28;20185;-76
2022/07/07 05:46:32;;;;;;;2.20;1.87;;;;;;;18.53;80.79;100807.38;5065431;28;20212;-77
2022/07/07 05:48:58;;;;;;;4.47;1.90;;;;;;;18.64;80.96;100810.47;5063798;28;20185;-76
2022/07/07 05:51:23;;;;;;;1.97;1.70;;;;;;;18.83;80.70;100804.59;5073332;28;20212;-76
2022/07/07 05:53:49;;;;;;;2.33;1.73;;;;;;;19.12;80.23;100807.97;5068472;28;20193;-76
2022/07/07 05:56:14;;;;;;;2.50;1.93;;;;;;;19.83;78.72;100804.44;5055928;28;20752;-77
2022/07/07 05:58:40;;;;;;;1.97;1.70;;;;;;;21.01;75.63;100811.00;5073047;28;20803;-76
2022/07/07 06:01:05;;;;;;;3.20;2.10;;;;;;;22.96;71.12;100808.72;5069308;28;20278;-76
2022/07/07 06:03:30;;;;;;;2.17;1.80;;;;;;;24.41;67.71;100802.50;5070276;28;20675;-76
2022/07/07 06:05:56;;;;;;;2.73;1.90;;;;;;;24.57;66.45;100802.47;5071417;28;20668;-77
2022/07/07 06:08:21;;;;;;;1.80;1.60;;;;;;;23.88;67.52;100808.16;5073028;28;20205;-77
2022/07/07 06:10:46;;;;;;;3.17;1.83;;;;;;;23.02;69.18;100803.13;5061995;28;20225;-76
2022/07/07 06:13:12;;;;;;;2.83;1.80;;;;;;;22.39;70.25;100796.66;5073457;28;20194;-76
2022/07/07 06:15:37;;;;;;;3.20;1.60;;;;;;;22.26;71.43;100799.03;5062821;28;20201;-77
2022/07/07 06:18:03;;;;;;;4.60;1.80;;;;;;;22.51;71.14;100795.22;5071716;28;20182;-76
2022/07/07 06:20:29;;;;;;;2.37;1.90;;;;;;;22.67;71.46;100796.13;5072608;28;20748;-76
2022/07/07 06:22:55;;;;;;;2.37;1.70;;;;;;;22.73;71.10;100794.97;5067975;28;20773;-77
2022/07/07 06:25:20;;;;;;;1.80;1.50;;;;;;;22.66;71.55;100793.56;5068911;28;20240;-77
2022/07/07 06:27:46;;;;;;;2.83;1.50;;;;;;;22.65;71.73;100792.72;5063032;28;20232;-77
2022/07/07 06:30:12;;;;;;;3.13;1.80;;;;;;;22.41;71.59;100807.97;5065082;28;20225;-76
2022/07/07 06:32:37;;;;;;;3.43;1.70;;;;;;;22.04;72.77;100805.38;5067351;28;20194;-77
2022/07/07 06:35:04;;;;;;;1.77;1.57;;;;;;;21.78;73.08;100806.63;5063953;28;20182;-76
2022/07/07 06:37:29;;;;;;;2.87;1.67;;;;;;;21.60;72.73;100798.69;5060298;28;20187;-77
2022/07/07 06:39:55;;;;;;;2.20;1.50;;;;;;;21.45;73.19;100789.72;5068985;28;20656;-76
2022/07/07 06:42:20;;;;;;;1.97;1.60;;;;;;;21.46;73.83;100794.03;5069912;28;20205;-75
2022/07/07 06:44:46;;;;;;;2.43;1.50;;;;;;;21.50;73.24;100793.88;5071535;28;20296;-76
2022/07/07 06:47:11;;;;;;;1.93;1.60;;;;;;;21.39;73.12;100799.66;5065024;28;20267;-77
2022/07/07 06:49:36;;;;;;;3.20;1.73;;;;;;;21.31;72.97;100797.38;5077604;28;20181;-76
2022/07/07 06:52:02;;;;;;;5.60;1.97;;;;;;;21.18;73.51;100781.28;5080276;28;20197;-76
2022/07/07 06:54:27;;;;;;;2.80;1.50;;;;;;;21.03;74.11;100790.72;5071947;28;20190;-77
2022/07/07 06:56:53;;;;;;;3.93;1.43;;;;;;;20.93;74.53;100792.06;5064302;28;20205;-76
2022/07/07 06:59:18;;;;;;;1.90;1.60;;;;;;;20.80;75.01;100794.38;5065370;28;20628;-76
2022/07/07 07:01:44;;;;;;;3.43;1.60;;;;;;;20.66;75.07;100797.59;5069751;28;20218;-76
2022/07/07 07:04:13;;;;;;;1.87;1.43;;;;;;;20.48;75.90;100799.22;5067287;28;20227;-77
2022/07/07 07:06:40;;;;;;;3.90;1.50;;;;;;;20.32;76.12;100796.38;5087388;28;20206;-76
2022/07/07 07:09:05;;;;;;;2.53;1.53;;;;;;;20.17;76.60;100795.25;5071559;28;20652;-76
2022/07/07 07:11:31;;;;;;;2.20;1.57;;;;;;;20.05;77.05;100796.59;5068719;28;20205;-76
2022/07/07 07:13:58;;;;;;;3.00;1.67;;;;;;;19.99;76.50;100800.34;5058675;28;20200;-77
2022/07/07 07:16:23;;;;;;;3.53;1.60;;;;;;;19.86;76.16;100813.06;5057920;28;20208;-78
2022/07/07 07:18:48;;;;;;;2.33;1.50;;;;;;;19.71;76.63;100800.53;5071002;28;20212;-75
2022/07/07 07:21:14;;;;;;;2.10;1.67;;;;;;;19.60;76.86;100816.69;5066554;28;20211;-76
2022/07/07 07:23:40;;;;;;;2.40;1.80;;;;;;;19.49;77.35;100815.34;5065654;28;20192;-76
2022/07/07 07:26:07;;;;;;;2.63;1.50;;;;;;;19.45;78.12;100821.59;5062373;28;20209;-76
2022/07/07 07:28:33;;;;;;;3.20;1.70;;;;;;;19.41;77.92;100817.41;5049345;28;20210;-77
2022/07/07 07:30:59;;;;;;;1.60;1.50;;;;;;;19.41;78.52;100827.91;5070346;28;20203;-77
2022/07/07 07:33:24;;;;;;;2.80;1.60;;;;;;;19.40;78.60;100814.81;5067782;28;20199;-76
2022/07/07 07:35:49;;;;;;;3.67;1.93;;;;;;;19.41;78.47;100820.03;5064670;28;20209;-75
2022/07/07 07:38:15;;;;;;;2.53;1.97;;;;;;;19.49;78.71;100832.88;5068011;28;20425;-75
2022/07/07 07:40:40;;;;;;;1.50;1.33;;;;;;;19.61;78.21;100837.66;5071547;28;20710;-76
2022/07/07 07:43:05;;;;;;;2.50;1.83;;;;;;;19.78;78.12;100839.63;5065431;28;20181;-76
2022/07/07 07:45:31;;;;;;;2.40;1.67;;;;;;;19.97;78.18;100838.06;5063110;28;20287;-75
2022/07/07 07:47:57;;;;;;;1.73;1.57;;;;;;;20.11;77.51;100846.28;5062255;28;20188;-77
2022/07/07 07:50:23;;;;;;;1.97;1.50;;;;;;;20.22;77.29;100856.34;5066864;28;20324;-76
2022/07/07 07:52:49;;;;;;;2.90;1.70;;;;;;;20.34;77.00;100850.63;5066726;28;20260;-75
2022/07/07 07:55:17;;;;;;;2.10;1.63;;;;;;;20.48;76.91;100851.81;5063497;28;20629;-76
2022/07/07 07:57:43;;;;;;;2.00;1.80;;;;;;;20.66;76.88;100852.81;5057330;28;20253;-76
2022/07/07 08:00:11;;;;;;;1.97;1.73;;;;;;;20.79;76.73;100861.91;5067529;28;20186;-75
2022/07/07 08:02:37;;;;;;;2.90;1.77;;;;;;;20.81;76.21;100853.94;5058267;28;20199;-77
2022/07/07 08:05:03;;;;;;;2.90;1.77;;;;;;;20.66;76.89;100860.69;5058276;28;20577;-75
2022/07/07 08:07:28;;;;;;;2.63;1.70;;;;;;;20.48;77.36;100862.31;5067039;28;20187;-75
2022/07/07 08:09:53;;;;;;;2.20;2.00;;;;;;;20.28;78.11;100871.88;5063615;28;20184;-75
2022/07/07 08:12:19;;;;;;;2.60;1.80;;;;;;;20.12;78.64;100862.91;5068403;28;20185;-76
2022/07/07 08:14:45;;;;;;;2.40;1.90;;;;;;;19.99;78.39;100870.41;5065959;28;20197;-76
2022/07/07 08:17:10;;;;;;;4.00;2.00;;;;;;;19.90;79.20;100861.09;5065902;28;20283;-76
2022/07/07 08:19:36;;;;;;;2.70;2.10;;;;;;;19.82;79.93;100852.63;5070027;28;20553;-76
2022/07/07 08:22:01;;;;;;;3.20;1.63;;;;;;;19.75;79.99;100846.78;5058256;28;20521;-76
2022/07/07 08:24:27;;;;;;;2.13;1.77;;;;;;;19.71;80.84;100855.66;5065369;28;20628;-76
2022/07/07 08:26:52;;;;;;;2.67;1.73;;;;;;;19.66;81.05;100853.22;5069757;28;20250;-76
2022/07/07 08:29:18;;;;;;;2.20;2.00;;;;;;;19.63;81.23;100850.72;5064915;28;20193;-76
2022/07/07 08:31:43;;;;;;;2.80;1.90;;;;;;;19.59;81.66;100856.97;5070054;28;20204;-76
2022/07/07 08:34:09;;;;;;;3.03;2.30;;;;;;;19.53;82.19;100849.34;5067593;28;20188;-76
2022/07/07 08:36:34;;;;;;;2.43;1.77;;;;;;;19.48;82.86;100850.38;5070858;28;20230;-75
2022/07/07 08:39:00;;;;;;;3.57;2.23;;;;;;;19.47;83.74;100856.53;5068777;28;20683;-75
2022/07/07 08:41:26;;;;;;;3.07;2.10;;;;;;;19.49;84.14;100846.00;5065275;28;20181;-76
2022/07/07 08:43:52;;;;;;;2.07;1.83;;;;;;;19.52;84.47;100853.72;5069724;28;20178;-76
2022/07/07 08:46:18;;;;;;;2.03;1.70;;;;;;;19.56;84.37;100854.50;5066286;28;20681;-76
2022/07/07 08:48:43;;;;;;;4.53;2.13;;;;;;;19.62;83.79;100833.25;5066959;28;20185;-76
2022/07/07 08:51:09;;;;;;;2.43;1.80;;;;;;;19.78;83.13;100826.50;5077911;28;20280;-77
2022/07/07 08:53:37;;;;;;;5.00;2.40;;;;;;;20.01;81.81;100822.16;5068307;28;20207;-75
2022/07/07 08:56:09;;;;;;;3.67;1.60;;;;;;;20.27;80.97;100806.25;5066049;28;20768;-75
2022/07/07 08:58:35;;;;;;;2.50;1.83;;;;;;;20.61;80.69;100808.31;5061993;28;20196;-75
2022/07/07 09:01:06;;;;;;;3.17;2.20;;;;;;;20.97;79.94;100791.00;5062182;28;20184;-75
2022/07/07 09:03:32;;;;;;;3.07;2.23;;;;;;;21.31;79.32;100785.06;5065022;28;20188;-75
2022/07/07 09:05:58;;;;;;;4.73;2.17;;;;;;;21.61;78.13;100792.50;5062883;28;20260;-76
2022/07/07 09:08:25;;;;;;;2.97;1.80;;;;;;;21.89;77.76;100774.50;5067759;28;20205;-76
2022/07/07 09:10:51;;;;;;;1.97;1.70;;;;;;;22.19;76.94;100784.47;5078493;28;20285;-75
2022/07/07 09:13:28;;;;;;;2.73;1.73;;;;;;;22.58;76.08;100791.31;5060413;28;20205;-75
2022/07/07 09:15:57;;;;;;;3.07;2.00;;;;;;;22.93;74.86;100795.69;5057456;28;20200;-76
2022/07/07 09:18:31;;;;;;;3.40;1.80;;;;;;;23.21;74.74;100804.81;5060770;28;20186;-75
2022/07/07 09:20:57;;;;;;;3.13;2.37;;;;;;;23.60;73.31;100806.19;5060916;28;20191;-75
2022/07/07 09:23:22;;;;;;;2.77;2.07;;;;;;;23.95;72.81;100799.84;5068021;28;20178;-75
2022/07/07 09:25:48;;;;;;;3.07;1.97;;;;;;;24.29;72.45;100796.13;5066672;28;20202;-76
2022/07/07 09:28:13;;;;;;;2.77;2.07;;;;;;;24.49;71.76;100810.00;5069224;28;20177;-76
2022/07/07 09:30:45;;;;;;;2.17;1.80;;;;;;;24.47;71.56;100817.16;5068304;28;20217;-75
2022/07/07 09:33:23;;;;;;;2.63;1.90;;;;;;;24.27;71.66;100811.28;5066873;28;20734;-75
2022/07/07 09:38:35;;;;;;;3.77;1.90;;;;;;;23.95;72.81;100805.16;5064194;28;20268;-76
2022/07/07 09:41:12;;;;;;;2.23;1.80;;;;;;;23.99;73.32;100804.06;5056814;28;20189;-76
2022/07/07 09:43:47;;;;;;;3.80;2.10;;;;;;;24.14;71.88;100813.75;5065859;28;20185;-76
2022/07/07 09:46:24;;;;;;;3.70;2.20;;;;;;;24.14;72.06;100810.25;5060001;28;20198;-75
2022/07/07 09:48:57;;;;;;;2.40;2.07;;;;;;;24.23;72.11;100803.59;5051926;28;20186;-75
2022/07/07 09:51:25;;;;;;;4.47;2.20;;;;;;;24.22;71.82;100797.44;5054034;28;20559;-76
2022/07/07 09:54:12;;;;;;;3.83;2.10;;;;;;;24.15;71.44;100794.31;5064692;28;20247;-75
2022/07/07 09:56:45;;;;;;;2.73;1.90;;;;;;;24.19;72.13;100789.69;5057645;28;20198;-75
2022/07/07 09:59:14;;;;;;;2.03;1.80;;;;;;;24.46;71.04;100791.66;5056674;28;20199;-76
2022/07/07 10:01:41;;;;;;;3.80;1.83;;;;;;;24.60;70.85;100790.84;5056706;28;20181;-76
2022/07/07 10:04:17;;;;;;;3.97;2.37;;;;;;;24.69;70.33;100784.13;5064679;28;20182;-75
2022/07/07 10:06:43;;;;;;;3.60;2.10;;;;;;;24.68;70.24;100780.63;5060601;28;20215;-76
2022/07/07 10:09:17;;;;;;;3.13;1.87;;;;;;;24.58;71.11;100788.25;5060863;28;20187;-75
2022/07/07 10:11:45;;;;;;;4.07;1.90;;;;;;;24.72;70.50;100773.41;5051766;28;20354;-76
2022/07/07 10:14:15;;;;;;;2.20;1.90;;;;;;;24.74;70.55;100780.28;5065716;28;20281;-76
2022/07/07 10:16:42;;;;;;;2.93;1.70;;;;;;;24.75;70.77;100783.78;5067004;28;20205;-76
2022/07/07 10:19:10;;;;;;;2.67;1.90;;;;;;;24.74;70.91;100792.66;5061705;28;20173;-77
2022/07/07 10:21:36;;;;;;;4.63;1.97;;;;;;;24.72;71.67;100810.47;5060624;28;20205;-76
2022/07/07 10:24:03;;;;;;;2.73;1.73;;;;;;;24.74;71.77;100813.84;5060894;28;20626;-76
2022/07/07 10:26:40;;;;;;;2.13;1.93;;;;;;;24.81;72.27;100807.25;5053837;28;20306;-77
2022/07/07 10:29:10;;;;;;;1.80;1.70;;;;;;;24.87;72.10;100816.59;5063520;28;20237;-76
2022/07/07 10:31:37;;;;;;;1.63;1.47;;;;;;;25.05;72.09;100822.56;5047967;28;20206;-76
2022/07/07 10:34:10;;;;;;;2.83;1.73;;;;;;;25.18;72.11;100812.94;5051444;28;20186;-77
2022/07/07 10:36:51;;;;;;;2.20;1.60;;;;;;;25.20;71.96;100811.00;5061123;28;20228;-75
2022/07/07 10:39:20;;;;;;;2.20;2.00;;;;;;;25.22;71.48;100814.41;5065201;28;20196;-76
2022/07/07 10:42:07;;;;;;;4.17;2.27;;;;;;;25.32;71.29;100811.22;5063465;28;20186;-74
2022/07/07 10:44:35;;;;;;;2.70;1.90;;;;;;;25.49;71.29;100808.34;5055194;28;20320;-76
2022/07/07 10:47:25;;;;;;;2.87;2.00;;;;;;;25.75;70.97;100813.78;5053902;28;20234;-75
2022/07/07 10:49:52;;;;;;;3.30;2.07;;;;;;;26.03;69.21;100806.69;5057264;28;20185;-75
2022/07/07 10:52:23;;;;;;;3.47;2.00;;;;;;;26.07;69.89;100816.16;5058051;28;20238;-77
2022/07/07 10:55:07;;;;;;;4.10;2.33;;;;;;;26.19;69.70;100818.97;5063827;28;20217;-76
2022/07/07 10:57:43;;;;;;;3.63;1.87;;;;;;;26.25;69.75;100811.44;5057685;28;20721;-76
2022/07/07 11:00:26;;;;;;;3.37;2.07;;;;;;;26.11;69.86;100817.66;5055043;28;20190;-75
2022/07/07 11:02:54;;;;;;;2.57;1.87;;;;;;;25.88;70.56;100819.13;5068479;28;20174;-76
2022/07/07 11:05:19;;;;;;;2.87;1.73;;;;;;;25.65;71.39;100831.22;5061479;28;20288;-76
2022/07/07 11:07:57;;;;;;;2.03;1.80;;;;;;;25.41;71.87;100815.91;5057532;28;20270;-76
2022/07/07 11:10:44;;;;;;;2.37;1.80;;;;;;;25.21;72.10;100823.31;5069276;28;20214;-76
2022/07/07 11:13:28;;;;;;;1.80;1.67;;;;;;;25.22;72.81;100827.66;5057761;28;20179;-77
2022/07/07 11:16:10;;;;;;;2.20;1.77;;;;;;;25.37;72.57;100823.22;5056506;28;20225;-74
2022/07/07 11:18:36;;;;;;;2.00;1.90;;;;;;;25.59;72.19;100826.34;5059737;28;20190;-75
2022/07/07 11:21:04;;;;;;;2.17;1.80;;;;;;;25.79;71.83;100825.88;5065553;28;20298;-75
2022/07/07 11:23:55;;;;;;;2.30;1.73;;;;;;;26.02;71.52;100821.72;5062883;28;20273;-76
2022/07/07 11:26:23;;;;;;;1.60;1.50;;;;;;;26.27;70.75;100821.94;5063791;28;20840;-76
2022/07/07 11:28:50;;;;;;;3.07;2.10;;;;;;;26.44;70.40;100818.16;5057606;28;20661;-76